Time;durP1;ratioP1;P1;durP2;ratioP2;P2;SDS_P1;SDS_P2;PMS_P1;PMS_P2;Temp;Humidity;BMP_temperature;BMP_pressure;BME280_temperature;BME280_humidity;BME280_pressure;Samples;Min_cycle;Max_cycle;Signal;HPM_P1;HPM_P2
2023/10/15 00:02:13;;;;;;;8.47;3.80;;;8.60;67.90;;;;;;7738642;23;20238;-82
2023/10/15 00:05:19;;;;;;;5.23;3.33;;;8.60;68.00;;;;;;7739162;23;20368;-81
2023/10/15 00:08:24;;;;;;;6.63;3.20;;;8.60;68.40;;;;;;7739355;23;20217;-82
2023/10/15 00:11:27;;;;;;;5.47;3.57;;;8.60;68.30;;;;;;7712321;23;20209;-82
2023/10/15 00:14:30;;;;;;;4.77;3.43;;;8.60;68.30;;;;;;7737392;23;20237;-80
2023/10/15 00:17:35;;;;;;;7.43;3.80;;;8.50;68.40;;;;;;7739132;23;20259;-82
2023/10/15 00:20:40;;;;;;;7.10;3.63;;;8.50;68.40;;;;;;7739667;23;20210;-81
2023/10/15 00:23:46;;;;;;;5.23;3.67;;;8.50;68.20;;;;;;7738249;23;20217;-83
2023/10/15 00:26:50;;;;;;;9.37;3.97;;;8.50;68.30;;;;;;7740591;23;20215;-83
2023/10/15 00:29:53;;;;;;;5.03;3.70;;;8.40;68.50;;;;;;7738088;23;20217;-81
2023/10/15 00:32:58;;;;;;;5.50;3.40;;;8.40;68.50;;;;;;7733504;23;20292;-81
2023/10/15 00:36:04;;;;;;;5.80;3.30;;;8.40;68.40;;;;;;7738672;23;20758;-82
2023/10/15 00:39:19;;;;;;;4.00;3.17;;;8.40;68.50;;;;;;7740346;23;20221;-81
2023/10/15 00:42:23;;;;;;;3.50;3.20;;;8.30;68.50;;;;;;7733080;23;20682;-81
2023/10/15 00:45:26;;;;;;;4.10;3.80;;;8.30;68.70;;;;;;7737130;23;20213;-80
2023/10/15 00:48:33;;;;;;;5.67;3.60;;;8.40;68.40;;;;;;7739420;23;20313;-80
2023/10/15 00:51:40;;;;;;;10.03;3.97;;;8.40;68.50;;;;;;7738834;23;20209;-82
2023/10/15 00:54:45;;;;;;;5.60;3.87;;;8.30;68.30;;;;;;7737589;23;20241;-79
2023/10/15 00:57:56;;;;;;;8.53;3.67;;;8.30;68.50;;;;;;7737283;23;20240;-79
2023/10/15 01:01:19;;;;;;;7.03;3.70;;;8.30;68.70;;;;;;7738741;23;20213;-79
2023/10/15 01:04:30;;;;;;;7.60;4.17;;;8.20;68.70;;;;;;7742176;23;20213;-79
2023/10/15 01:07:43;;;;;;;5.70;3.60;;;8.20;68.50;;;;;;7741969;23;20221;-81
2023/10/15 01:10:53;;;;;;;8.30;3.80;;;8.30;68.50;;;;;;7742737;23;20214;-81
2023/10/15 01:13:56;;;;;;;10.87;4.37;;;8.20;68.80;;;;;;7742428;23;20225;-80
2023/10/15 01:17:00;;;;;;;7.53;3.63;;;8.20;68.90;;;;;;7742284;23;20218;-80
2023/10/15 01:20:09;;;;;;;6.80;4.10;;;8.20;68.70;;;;;;7741715;23;20276;-80
2023/10/15 01:23:28;;;;;;;6.63;4.03;;;8.20;68.70;;;;;;7743299;23;20677;-82
2023/10/15 01:26:36;;;;;;;9.67;3.73;;;8.10;68.80;;;;;;7740520;23;20635;-81
2023/10/15 01:29:41;;;;;;;6.10;2.93;;;8.10;68.80;;;;;;7737572;23;20224;-82
2023/10/15 01:32:45;;;;;;;7.90;3.70;;;8.00;69.10;;;;;;7738924;23;20271;-81
2023/10/15 01:35:50;;;;;;;8.93;3.97;;;8.00;69.00;;;;;;7742889;23;20699;-80
2023/10/15 01:38:57;;;;;;;11.90;4.00;;;8.00;69.10;;;;;;7741850;23;20220;-81
2023/10/15 01:42:06;;;;;;;11.60;4.07;;;8.00;68.90;;;;;;7743502;23;20213;-79
2023/10/15 01:45:30;;;;;;;5.23;3.57;;;8.00;68.80;;;;;;7739527;23;20205;-82
2023/10/15 01:48:39;;;;;;;8.30;3.90;;;8.00;69.00;;;;;;7740408;23;20213;-82
2023/10/15 01:51:44;;;;;;;6.27;3.73;;;8.00;69.00;;;;;;7739514;23;20260;-81
2023/10/15 01:55:04;;;;;;;7.63;3.77;;;8.00;69.00;;;;;;7740847;23;20260;-81
2023/10/15 01:58:12;;;;;;;5.27;3.60;;;8.00;68.90;;;;;;7741218;23;20213;-82
2023/10/15 02:01:21;;;;;;;4.47;3.73;;;8.00;68.90;;;;;;7739996;23;20219;-83
2023/10/15 02:04:26;;;;;;;8.43;4.13;;;8.00;68.90;;;;;;7745050;23;20214;-81
2023/10/15 02:07:31;;;;;;;7.70;3.93;;;7.90;69.10;;;;;;7738954;23;20205;-82
2023/10/15 02:10:38;;;;;;;9.47;3.87;;;8.00;69.00;;;;;;7740057;23;20292;-83
2023/10/15 02:13:45;;;;;;;9.40;4.07;;;7.90;69.00;;;;;;7740192;23;20611;-79
2023/10/15 02:16:50;;;;;;;6.67;4.10;;;7.90;69.20;;;;;;7738013;23;20653;-82
2023/10/15 02:19:55;;;;;;;9.13;4.03;;;7.80;69.30;;;;;;7698340;23;20217;-83
2023/10/15 02:22:59;;;;;;;8.07;3.80;;;7.90;69.20;;;;;;7719497;23;20360;-82
2023/10/15 02:26:03;;;;;;;10.83;4.30;;;7.90;69.20;;;;;;7742615;23;20216;-82
2023/10/15 02:29:28;;;;;;;4.77;4.00;;;8.00;69.10;;;;;;7742647;23;20201;-81
2023/10/15 02:32:33;;;;;;;9.50;4.73;;;8.00;68.80;;;;;;7738021;23;20715;-81
2023/10/15 02:35:42;;;;;;;13.93;4.70;;;8.10;68.50;;;;;;7741929;23;20239;-79
2023/10/15 02:38:56;;;;;;;6.13;4.10;;;8.10;68.70;;;;;;7741586;23;20213;-82
2023/10/15 02:42:01;;;;;;;7.83;3.53;;;8.00;68.60;;;;;;7748928;23;20218;-82
2023/10/15 02:45:07;;;;;;;6.30;4.23;;;8.00;68.70;;;;;;7741646;23;20349;-82
2023/10/15 02:48:19;;;;;;;9.87;4.60;;;7.90;68.60;;;;;;7741583;23;20232;-77
2023/10/15 02:51:26;;;;;;;12.67;4.20;;;7.80;68.80;;;;;;7730957;23;20222;-81
2023/10/15 02:54:36;;;;;;;9.90;3.80;;;7.80;69.00;;;;;;7738553;23;20213;-80
2023/10/15 02:57:41;;;;;;;11.53;4.03;;;7.80;69.00;;;;;;7741157;23;20209;-80
2023/10/15 03:00:51;;;;;;;6.13;3.57;;;7.80;69.00;;;;;;7739094;23;20225;-81
2023/10/15 03:03:56;;;;;;;7.47;3.60;;;7.70;69.20;;;;;;7742698;23;20214;-81
2023/10/15 03:07:17;;;;;;;6.70;3.50;;;7.70;69.40;;;;;;7740248;23;20217;-80
2023/10/15 03:10:22;;;;;;;6.30;4.03;;;7.70;69.40;;;;;;7740291;23;20291;-81
2023/10/15 03:13:26;;;;;;;8.77;4.13;;;7.70;69.50;;;;;;7741439;23;20228;-81
2023/10/15 03:16:33;;;;;;;13.53;3.93;;;7.60;69.70;;;;;;7741331;23;20221;-82
2023/10/15 03:19:36;;;;;;;7.13;4.13;;;7.60;69.60;;;;;;7739110;23;20221;-81
2023/10/15 03:22:39;;;;;;;11.97;4.30;;;7.50;70.00;;;;;;7739529;23;20221;-81
2023/10/15 03:25:43;;;;;;;11.73;4.30;;;7.50;69.80;;;;;;7739694;23;20220;-82
2023/10/15 03:28:51;;;;;;;7.33;3.87;;;7.50;70.10;;;;;;7738684;23;20206;-84
2023/10/15 03:32:04;;;;;;;8.10;4.60;;;7.50;70.30;;;;;;7734136;23;20586;-81
2023/10/15 03:35:15;;;;;;;10.20;3.87;;;7.50;70.00;;;;;;7739962;23;20323;-82
2023/10/15 03:38:23;;;;;;;12.23;3.87;;;7.50;70.10;;;;;;7738512;23;20216;-81
2023/10/15 03:41:29;;;;;;;7.10;4.00;;;7.50;69.90;;;;;;7694210;23;20213;-82
2023/10/15 03:44:33;;;;;;;5.80;4.40;;;7.50;70.00;;;;;;7738128;23;20221;-81
2023/10/15 03:47:39;;;;;;;11.33;3.63;;;7.40;70.20;;;;;;7738053;23;20591;-80
2023/10/15 03:50:53;;;;;;;7.77;4.33;;;7.50;70.20;;;;;;7739424;23;20250;-81
2023/10/15 03:54:06;;;;;;;9.43;3.60;;;7.40;70.50;;;;;;7738834;23;20263;-81
2023/10/15 03:57:09;;;;;;;8.80;3.97;;;7.40;70.00;;;;;;7735473;23;20281;-81
2023/10/15 04:00:26;;;;;;;4.13;3.70;;;7.40;70.30;;;;;;7738510;23;20353;-81
2023/10/15 04:03:35;;;;;;;10.03;3.50;;;7.40;70.20;;;;;;7711066;23;20214;-79
2023/10/15 04:06:39;;;;;;;8.27;3.80;;;7.30;70.30;;;;;;7737178;23;20242;-82
2023/10/15 04:09:42;;;;;;;4.43;3.70;;;7.20;70.50;;;;;;7738730;23;20221;-80
2023/10/15 04:12:45;;;;;;;10.20;3.93;;;7.20;70.50;;;;;;7739948;23;20216;-81
2023/10/15 04:15:48;;;;;;;5.50;3.57;;;7.20;70.30;;;;;;7738683;23;20225;-81
2023/10/15 04:18:53;;;;;;;6.13;3.53;;;7.20;70.30;;;;;;7712505;23;20555;-82
2023/10/15 04:22:00;;;;;;;7.30;4.67;;;7.20;70.50;;;;;;7726799;23;20818;-79
2023/10/15 04:25:06;;;;;;;5.90;3.70;;;7.20;70.80;;;;;;7741208;23;20275;-82
2023/10/15 04:28:12;;;;;;;7.53;3.93;;;7.20;70.40;;;;;;7741121;23;20227;-79
2023/10/15 04:31:22;;;;;;;14.13;4.37;;;7.20;70.30;;;;;;7740844;23;20233;-80
2023/10/15 04:34:28;;;;;;;8.47;4.13;;;7.20;70.40;;;;;;7740289;23;20668;-81
2023/10/15 04:37:35;;;;;;;6.57;4.27;;;7.20;70.50;;;;;;7742399;23;20220;-82
2023/10/15 04:40:50;;;;;;;9.77;4.20;;;7.20;70.50;;;;;;7727603;23;20339;-79
2023/10/15 04:43:54;;;;;;;9.23;4.30;;;7.10;70.60;;;;;;7741967;23;20380;-81
2023/10/15 04:47:04;;;;;;;6.37;4.00;;;7.10;70.90;;;;;;7742516;23;20227;-82
2023/10/15 04:50:15;;;;;;;8.70;4.10;;;7.10;70.70;;;;;;7741773;23;20731;-81
2023/10/15 04:53:24;;;;;;;9.07;3.90;;;7.00;70.80;;;;;;7742495;23;20639;-81
2023/10/15 04:56:27;;;;;;;6.87;3.87;;;7.00;70.90;;;;;;7738942;23;20210;-84
2023/10/15 04:59:30;;;;;;;10.33;3.97;;;7.00;70.90;;;;;;7742965;23;20210;-82
2023/10/15 05:02:34;;;;;;;10.53;3.87;;;7.00;71.00;;;;;;7742713;23;20705;-84
2023/10/15 05:05:38;;;;;;;12.30;4.30;;;7.00;70.90;;;;;;7742738;23;20296;-81
2023/10/15 05:08:42;;;;;;;6.03;3.73;;;7.00;71.00;;;;;;7741462;23;20209;-84
2023/10/15 05:11:45;;;;;;;7.13;3.50;;;7.00;71.20;;;;;;7738720;23;20224;-84
2023/10/15 05:14:49;;;;;;;10.97;4.20;;;7.00;71.20;;;;;;7739952;23;20261;-84
2023/10/15 05:17:52;;;;;;;9.97;3.90;;;6.90;71.40;;;;;;7714162;23;20729;-84
2023/10/15 05:20:57;;;;;;;11.83;4.63;;;6.90;71.60;;;;;;7741629;23;20233;-84
2023/10/15 05:24:02;;;;;;;10.40;4.10;;;6.80;71.80;;;;;;7741200;23;20369;-84
2023/10/15 05:27:05;;;;;;;8.77;4.50;;;6.90;71.80;;;;;;7741917;23;20235;-85
2023/10/15 05:30:10;;;;;;;10.13;4.40;;;6.80;71.80;;;;;;7739066;23;20601;-86
2023/10/15 05:33:16;;;;;;;8.13;4.43;;;6.80;71.80;;;;;;7722930;23;20417;-83
2023/10/15 05:36:21;;;;;;;6.17;4.00;;;6.80;72.00;;;;;;7731182;22;20216;-84
2023/10/15 05:39:25;;;;;;;8.63;3.93;;;6.80;71.80;;;;;;7778056;22;20193;-83
2023/10/15 05:42:29;;;;;;;12.93;3.63;;;6.90;71.80;;;;;;7740828;22;20221;-85
2023/10/15 05:45:33;;;;;;;8.53;4.10;;;6.90;71.70;;;;;;7771337;22;20209;-83
2023/10/15 05:48:36;;;;;;;7.70;3.97;;;6.80;71.80;;;;;;7776356;22;20212;-84
2023/10/15 05:51:41;;;;;;;9.37;3.83;;;6.80;71.90;;;;;;7739902;22;20208;-85
2023/10/15 05:54:46;;;;;;;14.77;4.57;;;6.80;71.80;;;;;;7778813;22;20224;-83
2023/10/15 05:57:49;;;;;;;11.27;4.13;;;6.80;71.80;;;;;;7781054;22;20245;-82
2023/10/15 06:00:54;;;;;;;8.07;4.20;;;6.80;71.70;;;;;;7762287;22;20198;-81
2023/10/15 06:03:58;;;;;;;10.33;3.83;;;6.90;71.80;;;;;;7779452;22;20216;-82
2023/10/15 06:07:05;;;;;;;8.53;3.63;;;6.90;71.80;;;;;;7736728;22;20197;-84
2023/10/15 06:10:09;;;;;;;7.63;4.00;;;7.00;71.60;;;;;;7762774;22;20233;-84
2023/10/15 06:13:13;;;;;;;11.60;3.80;;;7.00;71.40;;;;;;7723841;22;20201;-83
2023/10/15 06:16:18;;;;;;;9.03;4.47;;;7.00;71.40;;;;;;7776987;22;20194;-81
2023/10/15 06:19:21;;;;;;;5.53;4.20;;;7.00;71.80;;;;;;7779971;22;20212;-81
2023/10/15 06:22:26;;;;;;;8.87;4.00;;;7.00;71.60;;;;;;7781313;22;20293;-81
2023/10/15 06:25:29;;;;;;;11.13;4.53;;;7.00;71.60;;;;;;7780452;22;20261;-83
2023/10/15 06:28:33;;;;;;;4.90;3.47;;;7.00;71.30;;;;;;7780568;22;20198;-82
2023/10/15 06:31:37;;;;;;;9.10;3.50;;;7.00;71.00;;;;;;7779075;22;20224;-83
2023/10/15 06:34:42;;;;;;;7.63;3.80;;;7.00;71.10;;;;;;7777638;22;20209;-83
2023/10/15 06:37:47;;;;;;;8.60;4.00;;;7.10;71.00;;;;;;7781269;22;20217;-81
2023/10/15 06:40:51;;;;;;;6.73;4.23;;;7.10;71.00;;;;;;7778963;22;20225;-80
2023/10/15 06:43:56;;;;;;;9.60;3.80;;;7.10;71.10;;;;;;7779818;22;20469;-80
2023/10/15 06:46:59;;;;;;;8.30;3.60;;;7.10;71.00;;;;;;7777845;22;20336;-81
2023/10/15 06:50:06;;;;;;;8.27;4.03;;;7.20;71.00;;;;;;7776540;22;20208;-81
2023/10/15 06:53:10;;;;;;;4.70;3.70;;;7.20;71.00;;;;;;7776716;22;20205;-80
2023/10/15 06:56:17;;;;;;;8.17;4.10;;;7.20;71.00;;;;;;7779269;22;20239;-79
2023/10/15 06:59:20;;;;;;;6.80;4.10;;;7.20;70.60;;;;;;7776649;22;20213;-83
2023/10/15 07:02:23;;;;;;;7.43;3.70;;;7.30;70.50;;;;;;7755167;23;20217;-84
2023/10/15 07:05:27;;;;;;;3.93;3.53;;;7.30;70.50;;;;;;7757926;23;20220;-85
2023/10/15 07:08:31;;;;;;;7.63;4.23;;;7.30;70.50;;;;;;7753209;23;20696;-84
2023/10/15 07:11:36;;;;;;;7.90;3.73;;;7.40;70.20;;;;;;7749767;23;20287;-82
2023/10/15 07:14:41;;;;;;;7.03;3.73;;;7.50;70.00;;;;;;7713872;23;20225;-85
2023/10/15 07:17:45;;;;;;;6.03;3.37;;;7.50;69.90;;;;;;7738438;23;20764;-82
2023/10/15 07:20:49;;;;;;;6.00;3.70;;;7.60;69.70;;;;;;7748360;23;20221;-84
2023/10/15 07:23:53;;;;;;;6.80;3.93;;;7.60;69.80;;;;;;7749141;23;20221;-84
2023/10/15 07:26:57;;;;;;;5.03;3.57;;;7.60;70.00;;;;;;7743794;23;20261;-83
2023/10/15 07:30:01;;;;;;;5.20;3.37;;;7.80;69.60;;;;;;7744471;23;20221;-83
2023/10/15 07:33:05;;;;;;;9.33;6.07;;;7.70;69.60;;;;;;7744485;23;20655;-83
2023/10/15 07:36:08;;;;;;;10.50;4.40;;;7.70;70.20;;;;;;7745716;23;20209;-83
2023/10/15 07:39:12;;;;;;;9.67;3.90;;;7.80;69.50;;;;;;7747314;23;20228;-81
2023/10/15 07:42:16;;;;;;;3.77;3.50;;;7.80;69.00;;;;;;7729458;23;20217;-83
2023/10/15 07:45:20;;;;;;;6.23;3.73;;;8.00;69.20;;;;;;7730082;23;20263;-82
2023/10/15 07:48:25;;;;;;;4.63;3.70;;;8.00;68.80;;;;;;7752604;23;20273;-84
2023/10/15 07:51:28;;;;;;;5.33;3.60;;;8.10;68.70;;;;;;7721776;23;20214;-81
2023/10/15 07:54:35;;;;;;;7.33;3.30;;;8.30;68.50;;;;;;7741597;23;20797;-83
2023/10/15 07:57:39;;;;;;;10.60;4.07;;;8.50;68.00;;;;;;7751274;23;20216;-82
2023/10/15 08:00:42;;;;;;;3.20;3.00;;;8.50;67.90;;;;;;7744713;23;20213;-79
2023/10/15 08:03:45;;;;;;;4.23;3.50;;;8.60;68.00;;;;;;7744372;23;20221;-81
2023/10/15 08:06:49;;;;;;;4.70;3.27;;;8.60;67.50;;;;;;7742323;23;20812;-81
2023/10/15 08:09:54;;;;;;;8.53;3.30;;;8.60;67.60;;;;;;7745765;23;20217;-82
2023/10/15 08:12:58;;;;;;;5.53;3.63;;;8.70;67.20;;;;;;7742489;23;20217;-80
2023/10/15 08:16:01;;;;;;;5.87;3.67;;;8.60;67.00;;;;;;7739852;23;20274;-80
2023/10/15 08:19:05;;;;;;;6.73;3.00;;;8.60;67.10;;;;;;7741948;23;20213;-83
2023/10/15 08:22:08;;;;;;;3.37;3.10;;;8.60;66.80;;;;;;7741384;23;20221;-77
2023/10/15 08:25:14;;;;;;;4.70;3.20;;;8.60;66.50;;;;;;7740937;23;20217;-79
2023/10/15 08:28:18;;;;;;;5.67;3.50;;;8.50;66.80;;;;;;7733292;23;20214;-77
2023/10/15 08:31:21;;;;;;;3.57;3.23;;;8.70;67.20;;;;;;7741450;23;20217;-79
2023/10/15 08:34:26;;;;;;;5.77;3.03;;;8.80;66.20;;;;;;7715451;23;20221;-81
2023/10/15 08:37:29;;;;;;;4.10;2.87;;;9.00;66.30;;;;;;7725486;23;20249;-83
2023/10/15 08:40:40;;;;;;;2.80;2.60;;;9.10;65.50;;;;;;7732394;23;20371;-80
2023/10/15 08:43:46;;;;;;;2.70;2.60;;;9.10;65.10;;;;;;7750093;23;20209;-81
2023/10/15 08:46:53;;;;;;;3.43;2.60;;;9.10;65.30;;;;;;7747897;23;20217;-82
2023/10/15 08:49:59;;;;;;;4.23;2.60;;;8.90;65.40;;;;;;7750226;23;20215;-80
2023/10/15 08:53:04;;;;;;;8.50;3.10;;;8.90;64.90;;;;;;7750813;23;20284;-82
2023/10/15 08:56:10;;;;;;;3.00;2.70;;;9.00;64.90;;;;;;7747990;23;20217;-82
2023/10/15 08:59:14;;;;;;;3.30;2.80;;;8.80;65.40;;;;;;7751707;23;20215;-81
2023/10/15 09:02:18;;;;;;;3.40;2.63;;;8.90;65.60;;;;;;7748347;23;20597;-81
2023/10/15 09:05:22;;;;;;;4.90;2.90;;;9.00;65.00;;;;;;7747525;23;20805;-81
2023/10/15 09:08:25;;;;;;;2.77;2.60;;;9.20;64.80;;;;;;7748285;23;20291;-81
2023/10/15 09:11:29;;;;;;;7.67;2.70;;;9.10;65.00;;;;;;7746293;23;20205;-80
2023/10/15 09:14:40;;;;;;;4.53;3.10;;;9.20;64.80;;;;;;7746054;23;20233;-79
2023/10/15 09:17:49;;;;;;;3.03;2.50;;;9.40;64.30;;;;;;7743322;23;20271;-79
2023/10/15 09:20:53;;;;;;;2.50;2.40;;;9.80;63.80;;;;;;7742646;23;20210;-77
2023/10/15 09:23:56;;;;;;;3.43;2.57;;;10.00;63.10;;;;;;7741881;23;20675;-76
2023/10/15 09:27:00;;;;;;;4.33;2.40;;;10.10;62.70;;;;;;7744770;23;20285;-78
2023/10/15 09:30:18;;;;;;;3.10;2.80;;;10.00;63.00;;;;;;7745222;23;20702;-82
2023/10/15 09:33:28;;;;;;;9.10;2.70;;;10.00;62.90;;;;;;7743003;23;20276;-81
2023/10/15 09:36:36;;;;;;;2.63;2.43;;;10.00;63.00;;;;;;7743822;23;20209;-83
2023/10/15 09:39:39;;;;;;;6.17;2.87;;;9.90;63.50;;;;;;7740271;23;20252;-82
2023/10/15 09:42:44;;;;;;;4.77;2.50;;;9.70;63.10;;;;;;7743412;23;20279;-80
2023/10/15 09:45:50;;;;;;;2.50;2.30;;;9.90;62.80;;;;;;7744639;23;20228;-82
2023/10/15 09:48:53;;;;;;;2.37;2.27;;;10.00;62.90;;;;;;7745097;23;20300;-84
2023/10/15 09:51:56;;;;;;;2.50;2.30;;;10.00;62.50;;;;;;7752291;23;20715;-81
2023/10/15 09:55:02;;;;;;;3.17;2.60;;;10.00;62.50;;;;;;7748796;23;20248;-83
2023/10/15 09:58:09;;;;;;;2.87;2.70;;;10.00;62.60;;;;;;7746500;23;20214;-80
2023/10/15 10:01:25;;;;;;;2.57;2.30;;;10.10;62.00;;;;;;7747272;23;20294;-83
2023/10/15 10:04:56;;;;;;;2.40;2.20;;;10.00;62.40;;;;;;7746171;23;20223;-82
2023/10/15 10:08:09;;;;;;;3.60;2.50;;;9.90;62.60;;;;;;7749956;23;20572;-82
2023/10/15 10:11:27;;;;;;;7.93;2.60;;;9.70;62.50;;;;;;7751843;23;20431;-81
2023/10/15 10:14:48;;;;;;;2.27;2.23;;;9.70;62.60;;;;;;7686690;23;20209;-85
2023/10/15 10:17:53;;;;;;;3.50;2.70;;;9.70;63.30;;;;;;7752034;23;20277;-82
2023/10/15 10:21:00;;;;;;;2.83;2.50;;;9.70;64.00;;;;;;7727102;23;20449;-82
2023/10/15 10:24:08;;;;;;;2.57;2.33;;;9.80;63.50;;;;;;7753649;23;20217;-82
2023/10/15 10:27:16;;;;;;;5.23;4.03;;;9.70;63.60;;;;;;7726262;23;20245;-82
2023/10/15 10:30:28;;;;;;;4.30;2.27;;;9.70;63.40;;;;;;7753632;23;20220;-82
2023/10/15 10:33:49;;;;;;;2.27;2.13;;;9.80;63.50;;;;;;7754017;23;20312;-82
2023/10/15 10:36:55;;;;;;;2.93;2.73;;;9.90;63.00;;;;;;7757343;23;20273;-83
2023/10/15 10:40:01;;;;;;;3.20;2.33;;;10.00;62.50;;;;;;7756475;23;20321;-84
2023/10/15 10:43:16;;;;;;;2.40;2.20;;;10.20;62.80;;;;;;7749606;23;20844;-82
2023/10/15 10:46:24;;;;;;;2.50;2.33;;;10.60;62.50;;;;;;7754020;23;20221;-82
2023/10/15 10:49:34;;;;;;;2.40;2.10;;;11.00;61.60;;;;;;7751918;23;20611;-80
2023/10/15 10:52:37;;;;;;;2.97;2.83;;;11.10;60.40;;;;;;7746922;23;20209;-79
2023/10/15 10:55:40;;;;;;;2.47;2.40;;;11.10;60.20;;;;;;7748149;23;20221;-81
2023/10/15 10:58:46;;;;;;;2.10;2.00;;;10.80;60.50;;;;;;7755605;23;20572;-82
2023/10/15 11:01:51;;;;;;;3.00;2.37;;;10.60;60.90;;;;;;7748475;23;20217;-83
2023/10/15 11:04:55;;;;;;;2.20;2.10;;;10.30;61.20;;;;;;7747868;23;20221;-82
2023/10/15 11:07:58;;;;;;;3.30;2.00;;;10.30;61.40;;;;;;7752723;23;20237;-81
2023/10/15 11:11:02;;;;;;;2.33;2.13;;;10.10;61.50;;;;;;7751506;23;20758;-82
2023/10/15 11:14:05;;;;;;;2.30;2.27;;;10.00;61.70;;;;;;7756037;23;20225;-83
2023/10/15 11:17:10;;;;;;;2.50;2.40;;;10.00;62.30;;;;;;7755765;23;20214;-82
2023/10/15 11:20:16;;;;;;;2.57;2.23;;;10.00;61.90;;;;;;7753413;23;20213;-83
2023/10/15 11:23:23;;;;;;;2.17;2.03;;;10.30;61.40;;;;;;7750755;23;20472;-83
2023/10/15 11:26:31;;;;;;;2.77;2.30;;;10.70;61.70;;;;;;7752148;23;20276;-81
2023/10/15 11:29:34;;;;;;;2.20;2.00;;;11.20;60.50;;;;;;7754762;23;20213;-82
2023/10/15 11:32:40;;;;;;;3.40;2.10;;;11.40;59.30;;;;;;7752490;23;20224;-82
2023/10/15 11:35:43;;;;;;;2.40;2.30;;;11.10;59.40;;;;;;7749981;23;20255;-84
2023/10/15 11:38:46;;;;;;;2.40;2.30;;;11.00;59.50;;;;;;7748133;23;20612;-81
2023/10/15 11:41:50;;;;;;;2.97;2.57;;;11.00;59.60;;;;;;7747463;23;20276;-79
2023/10/15 11:44:58;;;;;;;3.30;2.40;;;10.90;60.00;;;;;;7747019;23;20221;-84
2023/10/15 11:48:04;;;;;;;2.87;2.23;;;10.90;59.70;;;;;;7749257;23;20214;-83
2023/10/15 11:51:08;;;;;;;4.97;4.67;;;11.20;58.60;;;;;;7742860;23;20821;-75
2023/10/15 11:54:15;;;;;;;5.27;4.37;;;11.40;59.00;;;;;;7740696;23;20217;-78
2023/10/15 11:57:23;;;;;;;13.73;6.53;;;11.50;58.10;;;;;;7741838;23;20278;-75
2023/10/15 12:00:32;;;;;;;2.50;2.40;;;11.40;57.90;;;;;;7738020;23;20213;-77
2023/10/15 12:03:38;;;;;;;2.63;2.47;;;11.40;58.10;;;;;;7739811;23;20209;-82
2023/10/15 12:06:43;;;;;;;2.67;2.47;;;11.30;57.90;;;;;;7740347;23;20693;-84
2023/10/15 12:09:47;;;;;;;2.87;2.30;;;11.10;58.60;;;;;;7746617;23;20275;-85
2023/10/15 12:12:50;;;;;;;2.53;2.40;;;11.10;57.70;;;;;;7751085;23;20223;-86
2023/10/15 12:16:07;;;;;;;2.30;2.20;;;11.10;57.70;;;;;;6233287;27;2016982;-78
2023/10/15 12:19:11;;;;;;;2.53;2.43;;;11.10;58.20;;;;;;6258141;28;20234;-83
2023/10/15 12:22:14;;;;;;;2.13;2.03;;;11.30;58.30;;;;;;6248627;28;20230;-83
2023/10/15 12:25:19;;;;;;;2.60;2.40;;;11.30;58.10;;;;;;6262186;28;20241;-80
2023/10/15 12:28:22;;;;;;;2.47;2.33;;;11.40;57.90;;;;;;6265328;28;20246;-82
2023/10/15 12:31:27;;;;;;;2.40;2.30;;;11.50;57.90;;;;;;6254960;28;20270;-81
2023/10/15 12:34:30;;;;;;;2.20;2.10;;;11.70;57.60;;;;;;6257990;28;20238;-80
2023/10/15 12:37:36;;;;;;;2.43;2.10;;;11.60;56.80;;;;;;6255148;28;20324;-82
2023/10/15 12:40:40;;;;;;;2.20;2.17;;;11.50;56.50;;;;;;6259664;28;20636;-83
2023/10/15 12:43:43;;;;;;;1.70;1.70;;;11.50;56.40;;;;;;6254246;28;20321;-83
2023/10/15 12:46:50;;;;;;;2.03;2.00;;;11.50;56.40;;;;;;6258804;28;20241;-82
2023/10/15 12:49:57;;;;;;;2.00;1.90;;;11.60;56.40;;;;;;6253636;28;20267;-82
2023/10/15 12:53:00;;;;;;;3.47;2.00;;;11.90;55.70;;;;;;6264850;28;20769;-81
2023/10/15 12:56:03;;;;;;;2.10;2.00;;;11.70;55.80;;;;;;6268424;28;20230;-79
2023/10/15 12:59:07;;;;;;;2.07;1.97;;;11.50;56.60;;;;;;6259146;28;20257;-79
2023/10/15 13:02:12;;;;;;;2.00;1.90;;;11.50;56.90;;;;;;6258433;28;20243;-77
2023/10/15 13:05:15;;;;;;;1.80;1.80;;;11.30;56.70;;;;;;6270094;28;20320;-80
2023/10/15 13:08:18;;;;;;;2.20;2.10;;;11.30;57.10;;;;;;6264170;28;20233;-77
2023/10/15 13:11:22;;;;;;;2.10;2.00;;;11.10;56.50;;;;;;6262303;28;20752;-77
2023/10/15 13:14:27;;;;;;;2.10;2.00;;;11.00;57.20;;;;;;6266166;28;20328;-77
2023/10/15 13:17:31;;;;;;;3.20;2.07;;;11.00;57.30;;;;;;6260393;28;20766;-77
2023/10/15 13:20:34;;;;;;;1.93;1.90;;;11.00;57.10;;;;;;6259823;28;20871;-80
2023/10/15 13:23:38;;;;;;;2.17;1.93;;;11.00;57.00;;;;;;6267322;28;20317;-80
2023/10/15 13:26:42;;;;;;;2.10;2.00;;;11.10;56.90;;;;;;6253438;28;20230;-77
2023/10/15 13:29:46;;;;;;;2.10;2.00;;;11.20;56.90;;;;;;6241344;28;20236;-78
2023/10/15 13:32:50;;;;;;;2.60;2.50;;;11.40;57.00;;;;;;6248945;28;20333;-77
2023/10/15 13:35:54;;;;;;;2.13;2.13;;;11.40;56.60;;;;;;6247038;28;20381;-78
2023/10/15 13:38:59;;;;;;;2.00;2.00;;;11.40;55.70;;;;;;6241831;28;20624;-77
2023/10/15 13:42:03;;;;;;;2.63;2.43;;;11.40;55.80;;;;;;6249180;28;20241;-78
2023/10/15 13:45:08;;;;;;;2.40;2.30;;;11.30;55.30;;;;;;6240990;28;20259;-79
2023/10/15 13:48:12;;;;;;;2.40;2.30;;;11.40;55.00;;;;;;6237409;28;20343;-78
2023/10/15 13:51:17;;;;;;;2.30;2.13;;;11.40;54.90;;;;;;6241250;28;20237;-76
2023/10/15 13:54:20;;;;;;;2.50;2.30;;;11.50;55.10;;;;;;6228665;28;20255;-80
2023/10/15 13:57:23;;;;;;;2.07;1.97;;;11.30;55.70;;;;;;6235628;28;20437;-79
2023/10/15 14:00:27;;;;;;;2.83;2.63;;;11.50;56.10;;;;;;6239923;28;20794;-77
2023/10/15 14:03:32;;;;;;;1.90;1.90;;;11.50;55.50;;;;;;6234200;28;20254;-77
2023/10/15 14:06:37;;;;;;;2.20;2.00;;;11.50;55.70;;;;;;6237965;28;20701;-77
2023/10/15 14:09:40;;;;;;;2.10;2.10;;;11.50;56.10;;;;;;6238007;28;20262;-82
2023/10/15 14:12:44;;;;;;;2.10;2.00;;;11.40;56.00;;;;;;6232015;28;20746;-78
2023/10/15 14:15:47;;;;;;;2.00;2.00;;;11.20;56.50;;;;;;6226508;28;20872;-81
2023/10/15 14:18:54;;;;;;;2.40;2.30;;;11.10;57.10;;;;;;6245834;28;20449;-84
2023/10/15 14:21:58;;;;;;;2.40;2.27;;;11.10;57.40;;;;;;6240167;28;20322;-84
2023/10/15 14:25:01;;;;;;;2.53;2.43;;;11.10;57.20;;;;;;6239637;28;20238;-85
2023/10/15 14:28:05;;;;;;;2.90;2.50;;;11.10;55.60;;;;;;6248478;28;20238;-84
2023/10/15 14:31:08;;;;;;;2.47;2.37;;;11.00;55.90;;;;;;6238932;28;20739;-85
2023/10/15 14:34:13;;;;;;;3.07;2.27;;;10.90;55.80;;;;;;6255585;28;20678;-86
2023/10/15 14:37:16;;;;;;;1.90;1.90;;;10.90;55.60;;;;;;6229616;28;20231;-86
2023/10/15 14:40:19;;;;;;;2.23;2.13;;;10.70;55.60;;;;;;6242153;28;20237;-85
2023/10/15 14:43:23;;;;;;;2.63;2.53;;;10.70;56.20;;;;;;6247820;28;20792;-84
2023/10/15 14:46:26;;;;;;;2.50;2.40;;;10.80;56.50;;;;;;6235105;28;20896;-87
2023/10/15 14:49:31;;;;;;;2.30;2.23;;;10.80;56.30;;;;;;6246302;28;20255;-85
2023/10/15 14:52:34;;;;;;;4.37;2.40;;;10.60;57.00;;;;;;6239383;28;20278;-84
2023/10/15 14:55:38;;;;;;;2.43;2.43;;;10.50;57.30;;;;;;6234596;28;20250;-88
2023/10/15 14:58:43;;;;;;;2.47;2.27;;;10.40;58.00;;;;;;6235152;28;20238;-83
2023/10/15 15:01:47;;;;;;;2.27;2.23;;;10.50;58.10;;;;;;6224663;28;20237;-84
2023/10/15 15:04:53;;;;;;;2.10;2.10;;;10.40;58.20;;;;;;6238249;28;20671;-81
2023/10/15 15:07:56;;;;;;;2.67;2.47;;;10.20;58.70;;;;;;6241502;28;20265;-81
2023/10/15 15:10:59;;;;;;;2.00;2.00;;;10.20;58.90;;;;;;6258074;28;20262;-83
2023/10/15 15:14:03;;;;;;;2.50;2.37;;;10.20;58.70;;;;;;6243458;28;20244;-84
2023/10/15 15:17:07;;;;;;;2.47;2.27;;;10.20;59.10;;;;;;6236439;28;20890;-79
2023/10/15 15:20:12;;;;;;;2.43;2.33;;;10.10;58.60;;;;;;6233595;28;20249;-81
2023/10/15 15:23:15;;;;;;;2.83;2.63;;;10.10;58.70;;;;;;6236060;28;20235;-85
2023/10/15 15:26:19;;;;;;;3.83;2.53;;;10.00;58.40;;;;;;6242875;28;20230;-83
2023/10/15 15:29:22;;;;;;;2.50;2.30;;;9.90;58.90;;;;;;6237047;28;20273;-82
2023/10/15 15:32:27;;;;;;;3.23;2.80;;;9.80;58.90;;;;;;6232255;28;20250;-81
2023/10/15 15:35:32;;;;;;;2.80;2.67;;;9.80;58.70;;;;;;6239457;28;20246;-84
2023/10/15 15:38:36;;;;;;;4.00;2.40;;;9.80;58.40;;;;;;6242260;28;20295;-84
2023/10/15 15:41:39;;;;;;;2.70;2.60;;;9.70;58.70;;;;;;6240636;28;20234;-80
2023/10/15 15:44:43;;;;;;;2.90;2.60;;;9.60;58.90;;;;;;6240684;28;20322;-82
2023/10/15 15:47:47;;;;;;;2.60;2.50;;;9.50;59.30;;;;;;6232864;28;20372;-83
2023/10/15 15:50:52;;;;;;;3.60;2.40;;;9.50;59.60;;;;;;6247810;28;20377;-82
2023/10/15 15:53:55;;;;;;;2.97;2.77;;;9.40;60.00;;;;;;6246117;28;20238;-85
2023/10/15 15:56:58;;;;;;;2.70;2.47;;;9.40;60.10;;;;;;6236569;28;20292;-82
2023/10/15 16:00:01;;;;;;;2.53;2.33;;;9.40;60.30;;;;;;6231978;28;20723;-83
2023/10/15 16:03:06;;;;;;;3.10;2.90;;;9.30;60.50;;;;;;6224195;28;20778;-83
2023/10/15 16:06:11;;;;;;;2.80;2.53;;;9.20;60.60;;;;;;6233541;28;20272;-83
2023/10/15 16:09:14;;;;;;;2.30;2.30;;;9.20;60.80;;;;;;6251993;28;20234;-82
2023/10/15 16:12:18;;;;;;;2.87;2.40;;;9.10;61.00;;;;;;6242915;28;20939;-83
2023/10/15 16:15:21;;;;;;;3.37;2.50;;;9.10;61.30;;;;;;6242164;28;20272;-83